createdAt,value
2023-07-22T00:02:01.133Z,9.60
2023-07-22T00:04:28.456Z,11.30
2023-07-22T00:06:55.662Z,9.75
2023-07-22T00:09:22.904Z,8.73
2023-07-22T00:11:51.669Z,11.35
2023-07-22T00:14:18.924Z,8.32
2023-07-22T00:16:46.203Z,12.85
2023-07-22T00:19:15.318Z,9.20
2023-07-22T00:21:42.589Z,11.32
2023-07-22T00:24:09.892Z,9.27
2023-07-22T00:26:37.160Z,10.38
2023-07-22T00:29:05.925Z,10.43
2023-07-22T00:31:33.092Z,8.52
2023-07-22T00:34:00.290Z,11.63
2023-07-22T00:36:27.862Z,11.50
2023-07-22T00:38:55.462Z,10.50
2023-07-22T00:41:22.975Z,10.70
2023-07-22T00:43:50.188Z,13.35
2023-07-22T00:46:17.509Z,10.82
2023-07-22T00:48:44.838Z,10.52
2023-07-22T00:51:12.092Z,13.23
2023-07-22T00:53:39.359Z,12.40
2023-07-22T00:56:06.718Z,10.70
2023-07-22T00:58:34.891Z,9.57
2023-07-22T01:01:02.248Z,9.68
2023-07-22T01:03:29.521Z,12.02
2023-07-22T01:05:58.157Z,10.77
2023-07-22T01:08:25.331Z,11.63
2023-07-22T01:10:52.503Z,9.65
2023-07-22T01:13:20.660Z,9.93
2023-07-22T01:15:47.974Z,10.10
2023-07-22T01:18:15.145Z,9.45
2023-07-22T01:20:42.361Z,9.07
2023-07-22T01:23:12.257Z,17.00
2023-07-22T01:25:39.541Z,9.18
2023-07-22T01:28:11.675Z,13.40
2023-07-22T01:30:38.986Z,9.95
2023-07-22T01:33:06.293Z,10.90
2023-07-22T01:35:34.485Z,8.63
2023-07-22T01:38:01.765Z,10.48
2023-07-22T01:40:29.688Z,9.50
2023-07-22T01:42:56.924Z,8.80
2023-07-22T01:45:24.227Z,10.50
2023-07-22T01:47:51.517Z,10.40
2023-07-22T01:50:19.833Z,9.00
2023-07-22T01:52:47.680Z,10.13
2023-07-22T01:55:14.957Z,10.07
2023-07-22T01:57:43.782Z,10.20
2023-07-22T02:00:12.214Z,10.10
2023-07-22T02:02:39.778Z,11.70
2023-07-22T02:05:07.290Z,10.00
2023-07-22T02:07:34.942Z,9.18
2023-07-22T02:10:02.213Z,11.55
2023-07-22T02:12:29.748Z,9.68
2023-07-22T02:14:57.015Z,10.65
2023-07-22T02:17:24.696Z,8.82
2023-07-22T02:19:53.308Z,10.55
2023-07-22T02:22:20.554Z,10.05
2023-07-22T02:24:47.894Z,12.77
2023-07-22T02:27:15.390Z,10.27
2023-07-22T02:29:42.632Z,10.88
2023-07-22T02:32:10.062Z,12.88
2023-07-22T02:34:38.501Z,11.02
2023-07-22T02:37:06.338Z,14.32
2023-07-22T02:39:33.599Z,10.20
2023-07-22T02:42:00.805Z,11.35
2023-07-22T02:44:28.318Z,10.48
2023-07-22T02:46:55.560Z,12.68
2023-07-22T02:49:22.782Z,13.10
2023-07-22T02:51:49.962Z,14.57
2023-07-22T02:54:18.200Z,11.57
2023-07-22T02:56:45.442Z,10.05
2023-07-22T02:59:12.678Z,11.60
2023-07-22T03:01:40.682Z,15.35
2023-07-22T03:04:08.010Z,13.35
2023-07-22T03:06:35.340Z,12.68
2023-07-22T03:09:02.636Z,12.05
2023-07-22T03:11:29.869Z,10.32
2023-07-22T03:13:57.094Z,10.40
2023-07-22T03:16:24.765Z,11.25
2023-07-22T03:18:52.151Z,12.27
2023-07-22T03:21:19.412Z,8.50
2023-07-22T03:23:46.731Z,13.07
2023-07-22T03:26:13.924Z,10.07
2023-07-22T03:28:42.689Z,13.90
2023-07-22T03:31:10.122Z,13.40
2023-07-22T03:33:37.463Z,9.20
2023-07-22T03:36:05.237Z,11.32
2023-07-22T03:38:32.401Z,12.27
2023-07-22T03:40:59.644Z,10.60
2023-07-22T03:43:26.811Z,10.07
2023-07-22T03:45:54.119Z,8.73
2023-07-22T03:48:21.329Z,10.45
2023-07-22T03:50:49.017Z,10.98
2023-07-22T03:53:17.182Z,12.32
2023-07-22T03:55:44.326Z,13.63
2023-07-22T03:58:11.719Z,13.27
2023-07-22T04:00:39.942Z,19.13
2023-07-22T04:03:07.316Z,13.98
2023-07-22T04:05:34.584Z,12.88
2023-07-22T04:08:01.740Z,12.68
2023-07-22T04:10:28.943Z,9.50
2023-07-22T04:12:56.132Z,10.02
2023-07-22T04:15:23.327Z,9.75
2023-07-22T04:17:50.634Z,11.15
2023-07-22T04:20:19.112Z,11.50
2023-07-22T04:22:46.420Z,10.02
2023-07-22T04:25:13.883Z,9.40
2023-07-22T04:27:41.238Z,9.18
2023-07-22T04:30:08.818Z,11.20
2023-07-22T04:32:36.131Z,10.80
2023-07-22T04:35:04.543Z,17.70
2023-07-22T04:37:31.843Z,11.35
2023-07-22T04:39:59.032Z,10.63
2023-07-22T04:42:26.920Z,11.48
2023-07-22T04:44:54.139Z,11.48
2023-07-22T04:47:21.382Z,10.23
2023-07-22T04:49:48.591Z,18.13
2023-07-22T04:52:15.751Z,10.32
2023-07-22T04:54:43.384Z,9.68
2023-07-22T04:57:10.657Z,12.88
2023-07-22T04:59:38.456Z,8.18
2023-07-22T05:02:05.893Z,19.13
2023-07-22T05:04:33.176Z,14.50
2023-07-22T05:07:00.391Z,11.82
2023-07-22T05:09:27.644Z,15.23
2023-07-22T05:11:54.844Z,10.65
2023-07-22T05:14:22.169Z,9.40
2023-07-22T05:16:49.513Z,8.13
2023-07-22T05:19:16.788Z,9.57
2023-07-22T05:21:43.991Z,10.90
2023-07-22T05:24:11.379Z,10.98
2023-07-22T05:26:38.666Z,11.25
2023-07-22T05:29:05.868Z,8.82
2023-07-22T05:31:33.366Z,9.05
2023-07-22T05:34:00.558Z,8.18
2023-07-22T05:36:28.042Z,9.25
2023-07-22T05:38:55.766Z,10.93
2023-07-22T05:41:23.033Z,8.95
2023-07-22T05:43:50.285Z,11.27
2023-07-22T05:46:17.618Z,10.98
2023-07-22T05:48:45.000Z,11.05
2023-07-22T05:51:12.891Z,12.27
2023-07-22T05:53:41.102Z,10.48
2023-07-22T05:56:08.499Z,10.07
2023-07-22T05:58:36.351Z,13.13
2023-07-22T06:01:03.763Z,9.95
2023-07-22T06:03:31.034Z,11.20
2023-07-22T06:05:58.257Z,12.45
2023-07-22T06:08:26.954Z,11.35
2023-07-22T06:10:54.590Z,15.63
2023-07-22T06:13:21.856Z,11.48
2023-07-22T06:15:49.086Z,12.85
2023-07-22T06:18:16.320Z,11.32
2023-07-22T06:20:43.625Z,12.15
2023-07-22T06:23:10.825Z,19.92
2023-07-22T06:25:38.112Z,12.55
2023-07-22T06:28:06.221Z,13.52
2023-07-22T06:30:33.714Z,13.27
2023-07-22T06:33:01.015Z,8.25
2023-07-22T06:35:28.829Z,11.55
2023-07-22T06:37:56.089Z,16.30
2023-07-22T06:40:23.261Z,18.15
2023-07-22T06:42:50.483Z,15.13
2023-07-22T06:45:18.257Z,10.57
2023-07-22T06:47:45.626Z,10.65
2023-07-22T06:50:13.198Z,11.85
2023-07-22T06:52:40.425Z,17.40
2023-07-22T06:55:07.788Z,14.90
2023-07-22T06:57:35.335Z,11.38
2023-07-22T07:00:02.586Z,15.02
2023-07-22T07:02:29.909Z,17.70
2023-07-22T07:04:57.188Z,13.45
2023-07-22T07:07:24.379Z,13.68
2023-07-22T07:09:51.808Z,12.27
2023-07-22T07:12:19.003Z,11.38
2023-07-22T07:14:46.327Z,13.43
2023-07-22T07:17:13.539Z,12.23
2023-07-22T07:19:40.745Z,15.82
2023-07-22T07:22:07.978Z,12.13
2023-07-22T07:24:35.157Z,14.40
2023-07-22T07:27:02.371Z,14.90
2023-07-22T07:31:59.775Z,13.85
2023-07-22T07:34:27.036Z,14.70
2023-07-22T07:36:54.637Z,12.77
2023-07-22T07:39:21.807Z,15.70
2023-07-22T07:41:49.005Z,14.85
2023-07-22T07:44:16.212Z,10.40
2023-07-22T07:46:43.749Z,15.80
2023-07-22T07:49:10.959Z,14.15
2023-07-22T07:51:38.374Z,12.93
2023-07-22T07:54:08.138Z,10.43
2023-07-22T07:56:35.402Z,10.60
2023-07-22T07:59:03.829Z,11.25
2023-07-22T08:01:31.067Z,14.13
2023-07-22T08:03:58.360Z,15.77
2023-07-22T08:06:25.975Z,10.07
2023-07-22T08:08:53.404Z,11.43
2023-07-22T08:11:30.977Z,14.45
2023-07-22T08:13:58.168Z,11.18
2023-07-22T08:16:26.163Z,10.38
2023-07-22T08:18:53.611Z,11.88
2023-07-22T08:21:21.058Z,13.38
2023-07-22T08:23:48.796Z,14.02
2023-07-22T08:26:19.131Z,12.80
2023-07-22T08:28:46.378Z,10.60
2023-07-22T08:31:13.595Z,12.23
2023-07-22T08:33:42.102Z,8.40
2023-07-22T08:36:10.396Z,8.18
2023-07-22T08:38:37.848Z,10.52
2023-07-22T08:41:05.103Z,7.80
2023-07-22T08:43:32.590Z,12.05
2023-07-22T08:46:01.982Z,8.75
2023-07-22T08:48:33.624Z,8.82
2023-07-22T08:51:04.756Z,7.25
2023-07-22T08:53:34.621Z,8.82
2023-07-22T08:56:02.401Z,7.25
2023-07-22T08:58:30.749Z,10.00
2023-07-22T09:00:58.426Z,6.30
2023-07-22T09:03:27.107Z,7.22
2023-07-22T09:05:54.484Z,10.05
2023-07-22T09:08:22.049Z,8.18
2023-07-22T09:10:49.943Z,5.72
2023-07-22T09:13:17.533Z,8.07
2023-07-22T09:15:44.929Z,6.82
2023-07-22T09:18:12.274Z,6.30
2023-07-22T09:20:39.546Z,5.13
2023-07-22T09:23:13.384Z,4.60
2023-07-22T09:25:42.121Z,6.90
2023-07-22T09:28:09.790Z,7.78
2023-07-22T09:30:39.381Z,6.90
2023-07-22T09:33:07.525Z,4.15
2023-07-22T09:35:47.915Z,5.03
2023-07-22T09:38:18.231Z,5.97
2023-07-22T09:40:45.393Z,4.55
2023-07-22T09:43:15.642Z,7.50
2023-07-22T09:45:42.903Z,3.75
2023-07-22T09:48:11.517Z,8.52
2023-07-22T09:50:39.422Z,5.55
2023-07-22T09:53:06.941Z,4.55
2023-07-22T09:55:35.398Z,6.03
2023-07-22T09:58:06.664Z,4.75
2023-07-22T10:00:37.687Z,6.63
2023-07-22T10:03:06.741Z,3.97
2023-07-22T10:05:35.726Z,5.43
2023-07-22T10:08:03.774Z,6.38
2023-07-22T10:10:30.925Z,6.32
2023-07-22T10:12:58.646Z,3.78
2023-07-22T10:15:30.880Z,6.25
2023-07-22T10:17:58.861Z,4.55
2023-07-22T10:20:26.199Z,3.08
2023-07-22T10:22:53.742Z,5.57
2023-07-22T10:25:21.557Z,6.22
2023-07-22T10:27:49.740Z,6.07
2023-07-22T10:30:17.856Z,3.63
2023-07-22T10:32:48.268Z,4.03
2023-07-22T10:35:19.632Z,2.67
2023-07-22T10:37:47.286Z,3.60
2023-07-22T10:40:20.714Z,3.20
2023-07-22T10:42:55.176Z,3.95
2023-07-22T10:45:33.510Z,5.45
2023-07-22T10:48:05.665Z,3.70
2023-07-22T10:50:44.189Z,6.35
2023-07-22T10:53:15.682Z,4.22
2023-07-22T10:56:02.819Z,3.25
2023-07-22T10:58:33.234Z,3.55
2023-07-22T11:01:25.211Z,4.18
2023-07-22T11:04:07.543Z,3.30
2023-07-22T11:06:35.204Z,4.32
2023-07-22T11:09:02.739Z,3.78
2023-07-22T11:11:39.984Z,3.28
2023-07-22T11:14:22.201Z,2.75
2023-07-22T11:16:49.795Z,3.47
2023-07-22T11:19:17.790Z,2.92
2023-07-22T11:21:45.895Z,2.80
2023-07-22T11:24:13.129Z,2.92
2023-07-22T11:26:41.796Z,3.03
2023-07-22T11:29:10.979Z,3.67
2023-07-22T11:31:39.446Z,3.97
2023-07-22T11:34:06.749Z,5.82
2023-07-22T11:36:35.554Z,5.75
2023-07-22T11:39:03.986Z,3.10
2023-07-22T11:41:31.718Z,3.53
2023-07-22T11:44:02.418Z,3.70
2023-07-22T11:46:30.134Z,3.22
2023-07-22T11:48:57.784Z,2.72
2023-07-22T11:51:26.311Z,5.05
2023-07-22T11:53:54.826Z,5.78
2023-07-22T11:56:23.008Z,16.48
2023-07-22T11:58:51.363Z,3.03
2023-07-22T12:01:18.692Z,2.42
2023-07-22T12:03:46.101Z,2.10
2023-07-22T12:06:13.874Z,2.45
2023-07-22T12:08:48.517Z,2.30
2023-07-22T12:11:22.808Z,4.63
2023-07-22T12:13:51.863Z,3.10
2023-07-22T12:16:26.386Z,2.33
2023-07-22T12:18:57.440Z,2.45
2023-07-22T12:21:24.747Z,2.95
2023-07-22T12:23:52.269Z,4.32
2023-07-22T12:26:19.454Z,3.15
2023-07-22T12:28:46.712Z,4.95
2023-07-22T12:31:14.085Z,4.38
2023-07-22T12:33:41.320Z,5.55
2023-07-22T12:36:08.584Z,3.15
2023-07-22T12:38:35.824Z,4.05
2023-07-22T12:41:03.368Z,4.32
2023-07-22T12:43:30.593Z,3.30
2023-07-22T12:45:59.119Z,3.22
2023-07-22T12:48:26.515Z,4.38
2023-07-22T12:50:53.718Z,3.05
2023-07-22T12:53:20.945Z,4.07
2023-07-22T12:55:48.199Z,3.17
2023-07-22T12:58:16.323Z,3.45
2023-07-22T13:00:43.516Z,3.20
2023-07-22T13:03:10.744Z,6.88
2023-07-22T13:05:38.036Z,4.03
2023-07-22T13:08:05.408Z,4.97
2023-07-22T13:10:35.342Z,4.38
2023-07-22T13:13:02.599Z,3.35
2023-07-22T13:15:29.771Z,3.17
2023-07-22T13:17:56.986Z,2.85
2023-07-22T13:20:24.202Z,6.78
2023-07-22T13:22:52.042Z,3.28
2023-07-22T13:25:19.186Z,2.58
2023-07-22T13:27:46.432Z,4.85
2023-07-22T13:30:14.611Z,3.47
2023-07-22T13:32:41.996Z,4.78
2023-07-22T13:35:10.651Z,4.40
2023-07-22T13:37:38.128Z,4.25
2023-07-22T13:40:11.045Z,4.22
2023-07-22T13:42:39.114Z,3.63
2023-07-22T13:45:06.937Z,3.00
2023-07-22T13:47:34.580Z,3.83
2023-07-22T13:50:01.871Z,3.90
2023-07-22T13:52:29.132Z,4.28
2023-07-22T13:54:56.417Z,2.83
2023-07-22T13:57:23.649Z,2.70
2023-07-22T13:59:50.940Z,3.03
2023-07-22T14:02:18.208Z,2.85
2023-07-22T14:04:45.567Z,3.80
2023-07-22T14:07:12.805Z,4.70
2023-07-22T14:09:40.086Z,3.20
2023-07-22T14:12:07.626Z,3.08
2023-07-22T14:14:34.938Z,5.80
2023-07-22T14:17:02.294Z,3.58
2023-07-22T14:19:29.590Z,2.90
2023-07-22T14:21:56.810Z,4.13
2023-07-22T14:24:24.250Z,8.90
2023-07-22T14:26:51.439Z,3.28
2023-07-22T14:29:18.668Z,3.25
2023-07-22T14:31:45.884Z,4.85
2023-07-22T14:34:13.065Z,2.67
2023-07-22T14:36:40.322Z,4.30
2023-07-22T14:39:07.575Z,2.47
2023-07-22T14:41:34.921Z,4.57
2023-07-22T14:44:02.177Z,3.03
2023-07-22T14:46:29.699Z,3.50
2023-07-22T14:48:56.979Z,6.30
2023-07-22T14:51:24.207Z,3.67
2023-07-22T14:53:52.424Z,3.63
2023-07-22T14:56:19.898Z,3.85
2023-07-22T14:58:47.196Z,3.25
2023-07-22T15:01:14.438Z,4.63
2023-07-22T15:03:41.654Z,3.58
2023-07-22T15:06:09.008Z,3.70
2023-07-22T15:08:36.319Z,4.05
2023-07-22T15:11:03.503Z,6.43
2023-07-22T15:13:30.738Z,4.55
2023-07-22T15:15:58.094Z,4.80
2023-07-22T15:18:25.554Z,3.97
2023-07-22T15:20:53.652Z,4.90
2023-07-22T15:23:24.373Z,2.67
2023-07-22T15:25:52.299Z,3.60
2023-07-22T15:28:19.522Z,3.67
2023-07-22T15:30:46.924Z,4.53
2023-07-22T15:33:14.171Z,2.95
2023-07-22T15:35:42.063Z,3.92
2023-07-22T15:38:09.251Z,2.42
2023-07-22T15:40:37.788Z,2.05
2023-07-22T15:43:05.252Z,2.78
2023-07-22T15:45:32.593Z,2.13
2023-07-22T15:48:00.985Z,3.40
2023-07-22T15:50:28.619Z,2.97
2023-07-22T15:52:55.961Z,1.80
2023-07-22T15:55:23.212Z,10.38
2023-07-22T15:57:50.653Z,4.68
2023-07-22T16:00:18.016Z,3.92
2023-07-22T16:02:45.488Z,3.25
2023-07-22T16:05:22.556Z,2.78
2023-07-22T16:07:50.626Z,2.85
2023-07-22T16:10:18.010Z,5.70
2023-07-22T16:12:45.231Z,2.65
2023-07-22T16:15:12.464Z,3.55
2023-07-22T16:17:39.738Z,2.60
2023-07-22T16:20:07.545Z,3.67
2023-07-22T16:22:35.328Z,3.33
2023-07-22T16:25:03.263Z,4.18
2023-07-22T16:27:30.592Z,3.92
2023-07-22T16:29:57.985Z,4.65
2023-07-22T16:32:25.283Z,4.78
2023-07-22T16:34:52.527Z,4.47
2023-07-22T16:37:19.804Z,3.42
2023-07-22T16:39:47.064Z,5.00
2023-07-22T16:42:14.316Z,5.78
2023-07-22T16:44:41.654Z,8.35
2023-07-22T16:47:08.987Z,4.03
2023-07-22T16:49:36.240Z,4.78
2023-07-22T16:52:03.485Z,3.42
2023-07-22T16:54:30.845Z,4.35
2023-07-22T16:56:58.046Z,4.13
2023-07-22T16:59:25.272Z,5.18
2023-07-22T17:01:52.503Z,4.63
2023-07-22T17:04:20.138Z,5.40
2023-07-22T17:06:47.370Z,4.95
2023-07-22T17:09:14.970Z,4.85
2023-07-22T17:11:43.060Z,5.72
2023-07-22T17:14:10.304Z,6.35
2023-07-22T17:16:37.519Z,4.93
2023-07-22T17:19:04.853Z,11.93
2023-07-22T17:21:32.132Z,3.30
2023-07-22T17:23:59.409Z,3.70
2023-07-22T17:26:26.650Z,3.58
2023-07-22T17:28:53.847Z,5.07
2023-07-22T17:31:21.152Z,4.80
2023-07-22T17:33:48.380Z,4.10
2023-07-22T17:36:15.620Z,7.18
2023-07-22T17:38:42.844Z,8.07
2023-07-22T17:41:10.102Z,3.88
2023-07-22T17:43:37.362Z,7.57
2023-07-22T17:46:05.497Z,7.03
2023-07-22T17:48:32.779Z,4.10
2023-07-22T17:51:00.105Z,7.93
2023-07-22T17:53:27.369Z,8.07
2023-07-22T17:55:54.571Z,4.68
2023-07-22T17:58:21.795Z,3.78
2023-07-22T18:00:49.034Z,4.68
2023-07-22T18:03:16.387Z,7.65
2023-07-22T18:05:49.773Z,4.28
2023-07-22T18:08:17.091Z,3.83
2023-07-22T18:10:44.429Z,5.95
2023-07-22T18:13:11.722Z,4.03
2023-07-22T18:15:38.973Z,6.57
2023-07-22T18:18:06.356Z,5.93
2023-07-22T18:20:35.664Z,4.82
2023-07-22T18:23:03.048Z,3.13
2023-07-22T18:25:30.329Z,5.50
2023-07-22T18:27:57.552Z,6.35
2023-07-22T18:30:24.736Z,5.07
2023-07-22T18:32:51.986Z,3.55
2023-07-22T18:35:19.310Z,7.70
2023-07-22T18:37:46.571Z,3.10
2023-07-22T18:40:13.991Z,7.07
2023-07-22T18:42:41.219Z,5.28
2023-07-22T18:45:08.837Z,4.63
2023-07-22T18:47:36.087Z,6.50
2023-07-22T18:50:03.787Z,2.92
2023-07-22T18:52:30.967Z,3.03
2023-07-22T18:54:58.223Z,5.53
2023-07-22T18:57:25.689Z,9.27
2023-07-22T18:59:53.024Z,5.13
2023-07-22T19:02:20.250Z,3.92
2023-07-22T19:04:47.490Z,4.80
2023-07-22T19:07:14.723Z,3.00
2023-07-22T19:09:41.980Z,4.55
2023-07-22T19:12:09.250Z,5.13
2023-07-22T19:14:38.247Z,5.05
2023-07-22T19:17:05.715Z,5.53
2023-07-22T19:19:32.914Z,4.47
2023-07-22T19:22:00.119Z,4.72
2023-07-22T19:24:27.457Z,3.50
2023-07-22T19:26:54.732Z,3.80
2023-07-22T19:29:22.610Z,4.97
2023-07-22T19:31:49.934Z,2.58
2023-07-22T19:34:17.289Z,3.05
2023-07-22T19:36:44.584Z,3.35
2023-07-22T19:39:12.100Z,3.72
2023-07-22T19:41:41.636Z,3.35
2023-07-22T19:44:09.083Z,2.72
2023-07-22T19:46:36.338Z,3.28
2023-07-22T19:49:03.592Z,3.60
2023-07-22T19:51:30.990Z,5.28
2023-07-22T19:53:58.224Z,3.05
2023-07-22T19:56:25.515Z,5.28
2023-07-22T19:58:52.707Z,6.82
2023-07-22T20:01:20.414Z,5.45
2023-07-22T20:03:47.992Z,3.50
2023-07-22T20:06:15.433Z,5.25
2023-07-22T20:08:42.700Z,4.00
2023-07-22T20:11:10.073Z,3.50
2023-07-22T20:13:37.837Z,3.33
2023-07-22T20:16:05.654Z,4.30
2023-07-22T20:18:32.995Z,4.70
2023-07-22T20:21:00.633Z,6.68
2023-07-22T20:23:27.879Z,2.92
2023-07-22T20:25:56.544Z,5.00
2023-07-22T20:28:23.828Z,12.23
2023-07-22T20:30:51.182Z,10.45
2023-07-22T20:33:18.678Z,7.35
2023-07-22T20:35:45.902Z,4.43
2023-07-22T20:38:13.138Z,4.72
2023-07-22T20:40:40.484Z,5.10
2023-07-22T20:43:07.834Z,3.70
2023-07-22T20:45:35.030Z,5.05
2023-07-22T20:48:02.281Z,8.13
2023-07-22T20:50:29.562Z,5.70
2023-07-22T20:52:56.744Z,4.40
2023-07-22T20:55:23.988Z,5.93
2023-07-22T20:57:51.190Z,5.60
2023-07-22T21:00:18.538Z,4.45
2023-07-22T21:02:46.295Z,6.28
2023-07-22T21:05:13.650Z,3.60
2023-07-22T21:07:41.065Z,3.05
2023-07-22T21:10:08.912Z,8.30
2023-07-22T21:12:36.279Z,5.43
2023-07-22T21:15:03.666Z,7.20
2023-07-22T21:17:31.136Z,3.60
2023-07-22T21:19:58.458Z,4.15
2023-07-22T21:22:25.769Z,5.70
2023-07-22T21:24:52.979Z,6.80
2023-07-22T21:27:22.441Z,5.00
2023-07-22T21:29:53.283Z,5.32
2023-07-22T21:32:20.532Z,5.55
2023-07-22T21:34:47.809Z,4.07
2023-07-22T21:37:15.248Z,3.92
2023-07-22T21:39:42.434Z,8.30
2023-07-22T21:42:09.664Z,5.57
2023-07-22T21:44:36.883Z,6.05
2023-07-22T21:47:04.178Z,6.05
2023-07-22T21:49:31.909Z,8.35
2023-07-22T21:51:59.116Z,4.78
2023-07-22T21:54:26.366Z,7.07
2023-07-22T21:56:57.128Z,5.85
2023-07-22T21:59:24.357Z,6.82
2023-07-22T22:01:51.681Z,5.57
2023-07-22T22:04:19.035Z,5.82
2023-07-22T22:06:47.070Z,8.57
2023-07-22T22:09:14.432Z,6.35
2023-07-22T22:11:41.698Z,5.78
2023-07-22T22:14:08.949Z,5.35
2023-07-22T22:16:36.297Z,6.25
2023-07-22T22:19:04.220Z,4.85
2023-07-22T22:21:31.517Z,7.28
2023-07-22T22:23:58.774Z,9.98
2023-07-22T22:26:26.054Z,12.05
2023-07-22T22:28:53.361Z,8.88
2023-07-22T22:31:20.661Z,7.68
2023-07-22T22:33:47.921Z,7.45
2023-07-22T22:36:15.157Z,11.18
2023-07-22T22:38:42.357Z,6.15
2023-07-22T22:41:09.551Z,6.32
2023-07-22T22:43:36.731Z,5.70
2023-07-22T22:46:03.972Z,6.88
2023-07-22T22:48:31.136Z,5.13
2023-07-22T22:50:58.416Z,4.10
2023-07-22T22:53:25.937Z,7.05
2023-07-22T22:55:53.215Z,5.20
2023-07-22T22:58:20.863Z,3.65
2023-07-22T23:00:48.355Z,9.07
2023-07-22T23:03:15.850Z,4.88
2023-07-22T23:05:43.232Z,4.57
2023-07-22T23:08:10.510Z,7.18
2023-07-22T23:10:37.784Z,6.00
2023-07-22T23:13:05.047Z,5.90
2023-07-22T23:15:32.298Z,5.93
2023-07-22T23:18:00.724Z,4.68
2023-07-22T23:20:28.162Z,5.22
2023-07-22T23:22:55.514Z,3.60
2023-07-22T23:25:22.824Z,3.80
2023-07-22T23:27:50.037Z,5.68
2023-07-22T23:30:18.149Z,5.25
2023-07-22T23:32:45.512Z,5.07
2023-07-22T23:35:12.895Z,5.30
2023-07-22T23:37:40.105Z,5.18
2023-07-22T23:40:08.442Z,6.25
2023-07-22T23:42:35.807Z,5.13
2023-07-22T23:45:04.436Z,3.95
2023-07-22T23:47:32.835Z,5.05
2023-07-22T23:50:01.268Z,5.05
2023-07-22T23:52:28.491Z,4.13
2023-07-22T23:54:55.758Z,5.72
2023-07-22T23:57:22.993Z,4.78
2023-07-22T23:59:50.231Z,4.47
